Time;durP1;ratioP1;P1;durP2;ratioP2;P2;SDS_P1;SDS_P2;PMS_P1;PMS_P2;Temp;Humidity;BMP_temperature;BMP_pressure;BME280_temperature;BME280_humidity;BME280_pressure;Samples;Min_cycle;Max_cycle;Signal;HPM_P1;HPM_P2
2022/12/15 00:39:21;;;;;;;;;65.00;49.75;;;;;1.30;56.75;100024.91;4999890;28;45496;-71
2022/12/15 00:41:47;;;;;;;;;70.25;53.75;;;;;1.95;57.53;100139.31;4997889;28;45463;-70
2022/12/15 00:44:12;;;;;;;;;70.25;54.00;;;;;0.90;57.12;99953.44;5014509;28;45682;-70
2022/12/15 00:46:53;;;;;;;;;69.25;54.75;;;;;1.64;57.69;100093.38;4999307;28;45428;-70
2022/12/15 01:22:06;;;;;;;;;64.75;51.75;;;;;1.83;57.55;100175.06;5017604;28;45376;-73
2022/12/15 01:24:32;;;;;;;;;66.25;48.75;;;;;1.82;58.04;100191.72;5000921;28;45456;-71
2022/12/15 01:26:57;;;;;;;;;63.50;51.00;;;;;1.71;58.25;100157.50;5018490;28;46697;-73
2022/12/15 01:29:23;;;;;;;;;63.50;52.50;;;;;1.57;58.13;100129.59;5000680;28;45271;-70
2022/12/15 01:31:48;;;;;;;;;66.75;53.00;;;;;1.73;58.30;100153.00;5018629;28;45343;-69
2022/12/15 01:34:14;;;;;;;;;66.75;55.75;;;;;1.25;58.51;100087.22;5018712;28;45350;-70
2022/12/15 01:36:39;;;;;;;;;68.25;52.00;;;;;1.04;59.00;100065.06;5005523;28;46422;-70
2022/12/15 01:39:04;;;;;;;;;63.25;49.50;;;;;1.30;59.21;100145.34;4998862;28;45478;-70
2022/12/15 01:41:30;;;;;;;;;67.75;52.25;;;;;1.48;59.06;100149.41;4999144;28;45466;-71
2022/12/15 01:44:14;;;;;;;;;65.00;48.75;;;;;1.07;58.91;100075.34;4981432;28;45468;-69
2022/12/15 01:46:40;;;;;;;;;45.00;38.00;;;;;1.22;58.53;100092.66;4998621;28;46351;-70
2022/12/15 01:49:22;;;;;;;;;60.50;48.00;;;;;1.72;58.57;100175.75;4998866;28;45274;-72
2022/12/15 01:51:52;;;;;;;;;66.75;53.75;;;;;1.74;58.36;100178.28;4998613;28;45394;-73
2022/12/15 01:54:23;;;;;;;;;65.50;49.75;;;;;1.74;58.30;100173.03;4998668;28;45230;-72
2022/12/15 01:56:53;;;;;;;;;63.50;52.00;;;;;1.23;58.80;100124.94;4998920;28;46457;-71
2022/12/15 01:59:34;;;;;;;;;69.75;52.75;;;;;0.99;58.56;100091.50;4998845;28;45357;-71
2022/12/15 02:01:59;;;;;;;;;62.75;48.50;;;;;1.69;58.34;100180.38;4982270;28;45484;-70
2022/12/15 02:04:25;;;;;;;;;69.00;52.75;;;;;1.48;57.91;100157.25;4998708;28;45283;-69
2022/12/15 02:06:51;;;;;;;;;73.25;55.00;;;;;1.51;58.15;100166.69;5013030;28;47692;-71
2022/12/15 02:09:19;;;;;;;;;64.50;52.75;;;;;1.48;59.04;100166.91;4999356;28;45484;-70
2022/12/15 02:12:21;;;;;;;;;61.75;49.25;;;;;1.55;58.89;100162.09;4998410;28;45442;-73
2022/12/15 02:15:07;;;;;;;;;64.00;49.50;;;;;1.28;59.24;100160.34;5013759;28;45456;-69
2022/12/15 02:18:00;;;;;;;;;66.25;51.75;;;;;1.50;59.34;100159.78;5014812;28;46656;-72
2022/12/15 02:21:03;;;;;;;;;62.50;52.50;;;;;1.51;59.31;100162.28;5016545;28;45503;-70
2022/12/15 02:23:31;;;;;;;;;63.75;50.25;;;;;1.55;59.16;100168.16;5016289;28;45301;-70
2022/12/15 02:26:11;;;;;;;;;68.00;53.00;;;;;1.46;58.98;100174.84;5017828;28;45398;-70
2022/12/15 02:29:14;;;;;;;;;61.25;50.75;;;;;1.33;59.72;100168.72;5015854;28;46747;-72
2022/12/15 02:31:48;;;;;;;;;68.00;50.75;;;;;0.48;59.26;100023.31;4998479;28;45337;-71
2022/12/15 02:34:14;;;;;;;;;73.25;55.00;;;;;1.32;60.25;100174.91;4997788;28;45391;-72
2022/12/15 02:36:44;;;;;;;;;70.25;56.50;;;;;1.19;59.96;100147.81;4996558;28;45460;-71
2022/12/15 02:39:13;;;;;;;;;72.00;54.50;;;;;1.28;60.22;100165.56;5017220;28;46697;-68
2022/12/15 02:41:41;;;;;;;;;66.00;50.75;;;;;1.28;60.11;100173.44;4995378;28;46746;-72
2022/12/15 02:44:10;;;;;;;;;69.50;55.00;;;;;1.18;59.94;100175.78;4999597;28;45356;-70
2022/12/15 02:47:12;;;;;;;;;69.75;55.75;;;;;1.07;60.75;100172.19;5017664;28;45580;-69
2022/12/15 02:49:46;;;;;;;;;64.00;49.50;;;;;1.06;61.08;100180.97;4999370;28;48655;-70
2022/12/15 02:52:14;;;;;;;;;64.50;52.00;;;;;1.04;60.57;100188.94;5016313;28;45295;-72
2022/12/15 02:54:59;;;;;;;;;71.75;54.50;;;;;1.05;60.73;100184.53;5017338;28;45202;-69
2022/12/15 02:57:47;;;;;;;;;68.25;54.50;;;;;0.90;60.55;100147.91;5016012;28;45334;-70
2022/12/15 03:00:15;;;;;;;;;65.25;50.75;;;;;1.14;60.58;100191.78;4999141;28;47056;-72
2022/12/15 03:02:45;;;;;;;;;67.50;51.25;;;;;0.43;60.49;100076.84;5016093;28;45499;-69
2022/12/15 03:05:12;;;;;;;;;73.25;56.00;;;;;1.16;60.37;100172.44;5014150;28;45253;-71
2022/12/15 03:07:37;;;;;;;;;73.00;56.00;;;;;1.06;60.34;100173.13;4996207;28;45530;-69
2022/12/15 03:10:05;;;;;;;;;71.00;56.75;;;;;0.45;60.91;100088.03;4997071;28;46488;-71
2022/12/15 03:12:30;;;;;;;;;71.75;54.50;;;;;1.08;60.63;100168.63;4997214;28;45448;-71
2022/12/15 03:14:56;;;;;;;;;74.50;56.00;;;;;1.07;60.64;100172.19;4997319;28;45439;-71
2022/12/15 03:17:22;;;;;;;;;70.00;56.50;;;;;1.08;60.71;100168.63;4979578;28;45271;-71
2022/12/15 03:19:47;;;;;;;;;69.25;54.75;;;;;0.87;60.90;100135.03;4996932;28;45517;-70
2022/12/15 03:22:13;;;;;;;;;64.25;52.50;;;;;-0.35;60.41;99944.03;4979634;28;46064;-70
2022/12/15 03:24:38;;;;;;;;;67.50;55.00;;;;;0.87;60.63;100150.72;5017285;28;45423;-70
2022/12/15 03:27:03;;;;;;;;;64.75;52.00;;;;;0.68;60.71;100107.50;5016954;28;45172;-72
2022/12/15 03:29:29;;;;;;;;;60.75;51.25;;;;;1.04;60.49;100182.84;5016738;28;45253;-69
2022/12/15 03:31:54;;;;;;;;;66.50;53.00;;;;;-2.81;60.40;99550.50;5016893;28;45631;-72
2022/12/15 03:34:20;;;;;;;;;74.25;54.25;;;;;0.94;61.22;100194.81;5007085;28;46074;-70
2022/12/15 03:36:45;;;;;;;;;69.25;53.00;;;;;0.87;61.06;100182.13;5015473;28;45488;-71
2022/12/15 03:39:11;;;;;;;;;66.75;53.25;;;;;0.84;61.03;100156.16;5002319;28;48669;-70
2022/12/15 03:41:36;;;;;;;;;72.00;55.50;;;;;0.73;61.51;100157.75;5018970;28;45341;-71
2022/12/15 03:44:02;;;;;;;;;73.00;57.00;;;;;0.72;62.23;100177.00;5020288;28;48726;-70
2022/12/15 03:46:27;;;;;;;;;73.00;54.50;;;;;-0.48;61.28;99963.97;5002503;28;45548;-70
2022/12/15 03:48:53;;;;;;;;;68.50;52.75;;;;;0.46;62.43;100137.63;5020270;28;45663;-70
2022/12/15 03:51:19;;;;;;;;;74.00;57.75;;;;;0.65;62.37;100171.34;4997444;28;45468;-70
2022/12/15 03:53:46;;;;;;;;;59.75;46.25;;;;;0.38;62.26;100139.00;5000260;28;45314;-70
2022/12/15 03:56:12;;;;;;;;;66.75;52.75;;;;;-0.43;63.24;100044.63;5000505;28;45208;-70
2022/12/15 03:58:38;;;;;;;;;77.25;60.75;;;;;0.44;62.77;100163.03;5000055;28;45692;-71
2022/12/15 04:01:28;;;;;;;;;68.50;52.50;;;;;-0.63;63.04;99985.78;4999725;28;45227;-71
2022/12/15 04:03:54;;;;;;;;;67.25;52.75;;;;;0.55;62.70;100170.19;5000296;28;45389;-72
2022/12/15 04:06:20;;;;;;;;;68.00;55.00;;;;;0.39;62.00;100151.16;5000032;28;45417;-70
2022/12/15 04:08:45;;;;;;;;;67.00;53.50;;;;;0.68;62.59;100180.75;4981994;28;47582;-70
2022/12/15 04:11:10;;;;;;;;;67.50;54.00;;;;;0.33;62.43;100113.16;4984534;28;46173;-69
2022/12/15 04:13:36;;;;;;;;;64.50;51.50;;;;;0.69;62.08;100178.06;4994653;28;56565;-70
2022/12/15 04:16:02;;;;;;;;;69.50;52.00;;;;;0.25;62.69;100105.81;5000079;28;45292;-68
2022/12/15 04:18:27;;;;;;;;;65.00;50.50;;;;;-0.11;62.15;100033.09;4999577;28;46674;-71
2022/12/15 04:20:52;;;;;;;;;68.50;51.25;;;;;0.66;61.70;100146.84;4999408;28;45269;-72
2022/12/15 04:23:18;;;;;;;;;63.00;49.25;;;;;0.95;61.14;100194.72;4998138;28;45252;-69
2022/12/15 05:31:51;;;;;;;;;71.75;53.50;;;;;0.81;59.51;100083.09;4998918;28;45286;-71
2022/12/15 05:34:28;;;;;;;;;64.50;49.75;;;;;1.34;59.52;100159.94;4998675;28;46466;-70
2022/12/15 05:36:55;;;;;;;;;65.50;50.00;;;;;0.82;59.77;100100.47;4998889;28;45465;-69
2022/12/15 05:39:21;;;;;;;;;63.25;50.50;;;;;1.32;59.76;100166.22;4998322;28;45370;-71
2022/12/15 05:41:47;;;;;;;;;70.50;55.00;;;;;0.70;59.64;100059.38;4998460;28;45357;-70
2022/12/15 05:44:13;;;;;;;;;71.75;50.00;;;;;1.34;59.51;100175.63;4998355;28;46262;-72
2022/12/15 05:46:38;;;;;;;;;71.75;56.25;;;;;1.01;59.89;100135.94;4999224;28;45265;-69
2022/12/15 05:49:05;;;;;;;;;71.50;54.50;;;;;0.55;59.72;100089.13;5000167;28;45441;-72
2022/12/15 05:51:31;;;;;;;;;64.25;52.00;;;;;0.76;59.58;100100.00;4999203;28;45596;-69
2022/12/15 05:53:56;;;;;;;;;67.75;54.25;;;;;0.87;58.99;100114.09;4997852;28;45552;-73
2022/12/15 05:56:21;;;;;;;;;67.50;54.00;;;;;1.05;59.10;100108.63;4998410;28;45417;-71
2022/12/15 05:58:47;;;;;;;;;69.75;53.00;;;;;1.13;59.40;100107.19;4998727;28;45338;-70
2022/12/15 06:01:14;;;;;;;;;64.50;48.50;;;;;1.41;58.60;100145.50;4980891;28;45252;-70
2022/12/15 06:03:41;;;;;;;;;63.25;51.25;;;;;1.32;58.85;100117.28;4998267;28;45392;-71
2022/12/15 06:06:07;;;;;;;;;60.25;49.00;;;;;1.65;57.76;100187.59;5013713;28;45485;-71
2022/12/15 06:08:36;;;;;;;;;66.75;53.25;;;;;1.52;58.18;100171.81;5016822;28;45370;-69
2022/12/15 06:11:02;;;;;;;;;64.25;52.75;;;;;1.31;58.28;100170.59;5018271;28;45349;-71
2022/12/15 06:13:31;;;;;;;;;63.00;49.50;;;;;1.31;58.83;100190.72;5008211;28;45958;-71
2022/12/15 06:16:00;;;;;;;;;71.00;55.50;;;;;1.27;58.93;100186.63;4996880;28;45422;-72
2022/12/15 06:18:29;;;;;;;;;72.00;53.00;;;;;1.25;59.58;100180.66;4998745;28;45412;-71
2022/12/15 06:21:03;;;;;;;;;69.75;55.00;;;;;1.19;59.12;100182.69;4998995;28;45300;-71
2022/12/15 06:23:29;;;;;;;;;62.25;49.25;;;;;1.16;59.02;100182.06;5000728;28;46103;-71
2022/12/15 06:25:55;;;;;;;;;64.25;54.75;;;;;1.17;59.24;100181.13;4980047;28;46456;-70
2022/12/15 06:28:24;;;;;;;;;67.75;52.25;;;;;1.20;58.81;100188.78;4998036;28;45556;-71
2022/12/15 06:30:52;;;;;;;;;74.00;57.00;;;;;0.84;59.37;100164.03;4998208;28;45294;-70
2022/12/15 06:33:18;;;;;;;;;66.50;55.75;;;;;0.73;59.89;100131.59;4980882;28;48377;-72
2022/12/15 06:35:43;;;;;;;;;73.25;56.50;;;;;0.49;59.95;100102.59;4997840;28;45456;-71
2022/12/15 06:38:09;;;;;;;;;59.75;48.00;;;;;0.50;59.96;100094.66;5014014;28;45488;-72
2022/12/15 06:40:34;;;;;;;;;54.25;44.75;;;;;0.89;59.90;100188.13;5013430;28;45444;-71
2022/12/15 06:42:59;;;;;;;;;67.50;54.25;;;;;0.82;60.96;100196.44;4979782;28;45710;-72
2022/12/15 06:45:25;;;;;;;;;70.75;52.25;;;;;0.04;60.81;100086.19;5006484;28;45475;-71
2022/12/15 06:47:50;;;;;;;;;67.00;52.00;;;;;0.07;61.19;100093.84;4997520;28;45227;-70
2022/12/15 06:50:15;;;;;;;;;68.00;54.75;;;;;0.54;61.17;100158.06;4999196;28;45647;-71
2022/12/15 06:52:41;;;;;;;;;67.25;52.75;;;;;0.76;61.18;100184.56;4999745;28;46547;-68
2022/12/15 06:55:06;;;;;;;;;72.25;52.00;;;;;0.87;60.79;100207.47;4999081;28;45391;-68
2022/12/15 06:57:32;;;;;;;;;68.25;53.75;;;;;0.92;60.85;100205.41;4999343;28;45420;-70
2022/12/15 06:59:57;;;;;;;;;73.25;55.75;;;;;0.96;60.85;100206.03;5001736;28;45508;-70
2022/12/15 07:02:23;;;;;;;;;72.50;57.75;;;;;0.93;60.31;100219.31;5004603;28;46000;-70
2022/12/15 07:04:48;;;;;;;;;68.75;55.50;;;;;0.25;60.36;100129.31;4996792;28;45528;-70
2022/12/15 07:07:13;;;;;;;;;72.75;58.00;;;;;0.64;61.11;100177.50;4989090;28;45507;-70
2022/12/15 07:09:38;;;;;;;;;66.50;50.00;;;;;0.37;60.51;100151.25;5017312;28;45326;-73
2022/12/15 07:12:04;;;;;;;;;70.50;53.75;;;;;-0.18;60.78;100057.09;5017089;28;46267;-70
2022/12/15 07:14:29;;;;;;;;;71.75;56.00;;;;;0.09;61.37;100104.22;5016789;28;45436;-69
2022/12/15 07:16:55;;;;;;;;;75.75;56.00;;;;;0.54;61.38;100200.75;5013644;28;45564;-70
2022/12/15 07:19:20;;;;;;;;;75.00;58.50;;;;;0.76;61.43;100215.13;4998531;28;45396;-72
2022/12/15 07:21:46;;;;;;;;;64.00;54.25;;;;;0.77;61.29;100229.88;5005409;28;45777;-69
2022/12/15 07:24:11;;;;;;;;;72.00;56.75;;;;;0.10;61.47;100122.41;4978892;28;45567;-68
2022/12/15 07:26:37;;;;;;;;;74.00;57.25;;;;;0.86;61.09;100231.97;4978999;28;45303;-69
2022/12/15 07:29:03;;;;;;;;;69.00;56.00;;;;;0.80;60.85;100241.03;4997216;28;45226;-69
2022/12/15 07:31:29;;;;;;;;;78.00;59.50;;;;;0.71;61.20;100231.13;4996898;28;45749;-68
2022/12/15 07:33:58;;;;;;;;;73.50;57.75;;;;;0.50;60.68;100194.03;4997120;28;45539;-67
2022/12/15 07:36:25;;;;;;;;;65.50;52.50;;;;;0.45;60.60;100208.31;5013859;28;45303;-70
2022/12/15 07:38:50;;;;;;;;;72.75;55.50;;;;;0.64;61.55;100227.22;5015724;28;45258;-70
2022/12/15 07:41:16;;;;;;;;;75.75;58.25;;;;;0.53;60.94;100213.94;4997506;28;47487;-70
2022/12/15 07:43:41;;;;;;;;;76.50;54.50;;;;;-0.18;61.02;100086.66;5016127;28;59107;-70
2022/12/15 07:46:07;;;;;;;;;71.00;57.25;;;;;0.74;60.19;100237.94;5017380;28;45515;-70
2022/12/15 07:48:32;;;;;;;;;68.00;52.25;;;;;0.41;60.53;100162.38;5018271;28;45515;-71
2022/12/15 07:50:58;;;;;;;;;72.50;54.75;;;;;0.86;59.83;100224.94;5016931;28;45733;-72
2022/12/15 07:53:26;;;;;;;;;71.50;55.25;;;;;0.17;60.50;100118.47;4997967;28;45618;-70
2022/12/15 07:55:57;;;;;;;;;68.25;51.75;;;;;0.21;60.79;100133.06;5017225;28;45361;-71
2022/12/15 07:58:23;;;;;;;;;69.50;57.25;;;;;0.68;60.26;100201.69;5018660;28;45274;-67
2022/12/15 08:00:48;;;;;;;;;73.75;57.50;;;;;1.00;60.29;100262.47;5011771;28;47315;-69
2022/12/15 08:03:13;;;;;;;;;68.75;55.25;;;;;-1.72;60.38;99841.84;5011333;28;45399;-69
2022/12/15 08:05:39;;;;;;;;;72.25;53.50;;;;;-0.36;60.89;100091.22;4991422;28;45326;-71
2022/12/15 08:08:04;;;;;;;;;74.50;58.25;;;;;-0.51;61.06;100050.31;5008541;28;45548;-71
2022/12/15 08:10:29;;;;;;;;;67.75;53.25;;;;;-2.69;59.97;99671.22;5016302;28;53239;-69
2022/12/15 08:12:55;;;;;;;;;71.75;53.50;;;;;-0.47;59.42;100059.66;5018525;28;45179;-71
2022/12/15 08:15:20;;;;;;;;;69.25;55.50;;;;;0.37;59.81;100177.41;5017807;28;45420;-71
2022/12/15 08:17:46;;;;;;;;;67.00;53.50;;;;;1.16;59.39;100329.50;5018950;28;45584;-70
2022/12/15 08:20:11;;;;;;;;;75.50;57.25;;;;;0.50;59.17;100204.50;5020445;28;45812;-73
2022/12/15 08:22:36;;;;;;;;;79.75;63.00;;;;;0.74;58.88;100246.63;5019731;28;54074;-70
2022/12/15 08:25:02;;;;;;;;;70.75;54.75;;;;;1.14;59.26;100302.59;5019854;28;45491;-70
2022/12/15 08:27:27;;;;;;;;;62.25;49.75;;;;;1.28;59.77;100306.97;5019959;28;45312;-73
2022/12/15 08:29:53;;;;;;;;;70.25;55.00;;;;;1.24;59.00;100276.69;5020127;28;46555;-70
2022/12/15 08:32:19;;;;;;;;;70.25;53.75;;;;;1.23;58.72;100269.78;5016418;28;45326;-71
2022/12/15 08:34:46;;;;;;;;;76.00;58.00;;;;;0.75;58.38;100209.06;5009059;28;45872;-69
2022/12/15 08:37:12;;;;;;;;;73.75;59.25;;;;;1.47;58.30;100333.69;4992656;28;45572;-73
2022/12/15 08:39:37;;;;;;;;;70.50;56.75;;;;;0.45;58.07;100127.25;4992571;28;45532;-70
2022/12/15 08:42:03;;;;;;;;;71.50;53.25;;;;;1.50;58.34;100296.00;5000196;28;45345;-75
2022/12/15 08:44:28;;;;;;;;;70.25;57.00;;;;;1.36;57.78;100254.09;5000230;28;45490;-69
2022/12/15 08:46:54;;;;;;;;;77.50;58.75;;;;;1.44;58.01;100291.16;5000020;28;45524;-73
2022/12/15 08:49:19;;;;;;;;;74.75;56.25;;;;;1.52;58.21;100321.16;4999582;28;45422;-70
2022/12/15 08:51:44;;;;;;;;;79.50;57.75;;;;;1.29;57.63;100242.34;5014909;28;45555;-71
2022/12/15 08:54:10;;;;;;;;;73.75;58.25;;;;;1.55;57.15;100262.47;4982897;28;45505;-74
2022/12/15 08:56:35;;;;;;;;;74.00;57.00;;;;;1.17;57.11;100205.53;5000167;28;45433;-73
2022/12/15 08:59:01;;;;;;;;;67.50;53.75;;;;;0.70;57.45;100114.31;4982219;28;46594;-70
2022/12/15 09:01:30;;;;;;;;;74.75;58.25;;;;;1.82;57.32;100292.16;5000031;28;45432;-69
2022/12/15 09:03:56;;;;;;;;;72.25;58.25;;;;;1.85;57.05;100296.34;4981689;28;45357;-71
2022/12/15 09:06:25;;;;;;;;;77.50;57.75;;;;;1.79;56.67;100284.47;4999616;28;45559;-72
2022/12/15 09:08:55;;;;;;;;;83.50;63.25;;;;;1.85;56.72;100288.50;4999515;28;45710;-71
2022/12/15 09:11:21;;;;;;;;;63.75;51.00;;;;;1.75;56.54;100287.41;4999247;28;45421;-70
2022/12/15 09:13:47;;;;;;;;;66.75;52.75;;;;;0.95;57.23;100163.31;4997722;28;45431;-71
2022/12/15 09:16:14;;;;;;;;;73.50;56.50;;;;;1.64;56.59;100266.31;4981554;28;45349;-72
2022/12/15 09:18:45;;;;;;;;;65.75;53.00;;;;;1.96;56.62;100298.25;4999401;28;46163;-69
2022/12/15 09:21:12;;;;;;;;;70.25;55.00;;;;;2.06;55.85;100294.97;5003306;28;45421;-70
2022/12/15 09:23:38;;;;;;;;;70.75;55.25;;;;;2.14;55.98;100297.91;4999225;28;45293;-71
2022/12/15 09:26:09;;;;;;;;;74.00;55.00;;;;;1.67;56.03;100247.75;5017302;28;45551;-73
2022/12/15 09:28:36;;;;;;;;;69.50;55.00;;;;;2.17;55.38;100301.25;5018694;28;46521;-73
2022/12/15 09:31:06;;;;;;;;;75.50;58.75;;;;;2.18;55.94;100313.44;5001112;28;45614;-71
2022/12/15 09:33:32;;;;;;;;;68.75;56.00;;;;;0.50;55.49;100049.34;5019030;28;45415;-70
2022/12/15 09:35:58;;;;;;;;;67.25;51.25;;;;;1.94;55.49;100256.44;5019146;28;45463;-70
2022/12/15 09:38:23;;;;;;;;;70.50;55.75;;;;;2.43;56.00;100324.84;5001436;28;47559;-73
2022/12/15 09:40:49;;;;;;;;;71.75;55.25;;;;;1.65;54.90;100161.41;5019523;28;45334;-72
2022/12/15 09:43:20;;;;;;;;;72.00;55.50;;;;;1.73;54.82;100166.13;5020778;28;45556;-70
2022/12/15 09:45:51;;;;;;;;;73.00;57.25;;;;;2.74;54.98;100313.09;5002731;28;45453;-72
2022/12/15 09:48:19;;;;;;;;;67.25;52.00;;;;;2.73;54.53;100321.91;5018102;28;46465;-71
2022/12/15 09:50:49;;;;;;;;;70.50;55.50;;;;;2.40;53.96;100274.34;5003892;28;45266;-69
2022/12/15 09:53:17;;;;;;;;;73.00;58.75;;;;;2.12;54.26;100215.03;5018290;28;45365;-70
2022/12/15 09:55:47;;;;;;;;;76.50;59.25;;;;;2.78;53.64;100332.09;5019990;28;45333;-71
2022/12/15 09:58:23;;;;;;;;;64.25;53.25;;;;;1.84;54.27;100166.25;5019419;28;45869;-70
2022/12/15 10:00:55;;;;;;;;;68.50;51.00;;;;;2.87;54.11;100343.78;5019175;28;45526;-71
2022/12/15 10:03:38;;;;;;;;;78.00;58.50;;;;;2.42;53.84;100239.22;5019758;28;45309;-69
2022/12/15 10:06:13;;;;;;;;;69.25;51.25;;;;;2.36;53.35;100233.50;5018127;28;45567;-70
2022/12/15 10:08:44;;;;;;;;;70.75;55.00;;;;;2.64;53.67;100256.94;5000504;28;47500;-70
2022/12/15 10:11:22;;;;;;;;;64.25;52.75;;;;;3.09;53.29;100341.34;5000097;28;45369;-73
2022/12/15 10:13:54;;;;;;;;;65.75;51.75;;;;;2.56;52.96;100216.41;5018540;28;45315;-71
2022/12/15 10:16:43;;;;;;;;;73.00;57.50;;;;;3.33;53.26;100318.63;5017869;28;45446;-71
2022/12/15 10:19:25;;;;;;;;;89.00;71.25;;;;;3.21;52.90;100321.28;4977072;28;46035;-69
2022/12/15 10:21:50;;;;;;;;;72.00;57.00;;;;;3.09;52.86;100269.59;4996960;28;45321;-71
2022/12/15 10:24:21;;;;;;;;;70.25;56.00;;;;;2.05;53.19;100080.06;4998365;28;45299;-71
2022/12/15 10:27:35;;;;;;;;;77.50;59.00;;;;;3.48;52.63;100307.97;4999317;28;45259;-71
2022/12/15 10:30:07;;;;;;;;;83.25;62.00;;;;;3.10;52.40;100235.34;4972559;28;46544;-71
2022/12/15 10:32:48;;;;;;;;;79.00;60.50;;;;;3.23;51.80;100261.59;4981734;28;45510;-73
2022/12/15 10:35:14;;;;;;;;;65.75;52.00;;;;;3.67;51.86;100303.91;4999826;28;45413;-70
2022/12/15 10:37:40;;;;;;;;;60.25;48.25;;;;;3.32;51.97;100239.91;5000707;28;45363;-71
2022/12/15 10:40:06;;;;;;;;;60.75;50.25;;;;;3.75;51.08;100274.44;4998458;28;46555;-73
2022/12/15 10:42:45;;;;;;;;;72.00;56.75;;;;;3.37;51.03;100216.75;5004332;28;45350;-71
2022/12/15 10:45:29;;;;;;;;;68.75;55.00;;;;;3.60;50.13;100229.09;5003059;28;45420;-70
2022/12/15 10:48:01;;;;;;;;;69.00;53.25;;;;;3.70;51.05;100276.56;5015814;28;45614;-71
2022/12/15 10:50:26;;;;;;;;;69.00;54.25;;;;;2.59;50.63;100117.31;5002478;28;46069;-70
2022/12/15 10:52:52;;;;;;;;;69.00;52.25;;;;;3.51;51.59;100286.72;4998229;28;45381;-73
2022/12/15 10:55:40;;;;;;;;;70.50;55.00;;;;;3.54;52.21;100252.34;4992292;28;45602;-72
2022/12/15 10:58:24;;;;;;;;;64.50;52.50;;;;;3.66;52.41;100254.06;5002793;28;45509;-71
2022/12/15 11:01:05;;;;;;;;;73.50;55.00;;;;;3.76;51.89;100249.81;4998006;28;45469;-73
2022/12/15 11:03:36;;;;;;;;;70.50;56.50;;;;;2.38;52.19;100013.91;5019423;28;45528;-71
2022/12/15 11:06:13;;;;;;;;;74.50;58.50;;;;;3.59;52.64;100237.06;5000274;28;45330;-71
2022/12/15 11:08:42;;;;;;;;;80.50;57.75;;;;;3.74;52.70;100229.84;5016700;28;45651;-70
2022/12/15 11:14:16;;;;;;;;;76.75;58.50;;;;;3.66;52.93;100222.53;5018275;28;45254;-74
2022/12/15 11:16:46;;;;;;;;;78.00;58.25;;;;;3.56;52.73;100226.78;5017980;28;45415;-72
2022/12/15 11:19:19;;;;;;;;;68.00;52.00;;;;;3.16;52.67;100171.84;5015203;28;45677;-70
2022/12/15 11:21:51;;;;;;;;;76.25;56.75;;;;;3.26;53.52;100214.09;4999691;28;45510;-73
2022/12/15 11:24:31;;;;;;;;;74.00;57.50;;;;;2.38;53.72;100077.69;4996455;28;45519;-70
2022/12/15 11:27:18;;;;;;;;;69.00;56.00;;;;;3.22;53.87;100213.47;4996676;28;45298;-70
2022/12/15 11:30:10;;;;;;;;;68.00;52.25;;;;;3.00;52.67;100210.66;4979947;28;45509;-70
2022/12/15 11:32:39;;;;;;;;;61.75;50.00;;;;;2.43;53.50;100161.34;4997689;28;45917;-72
2022/12/15 11:35:12;;;;;;;;;57.75;47.50;;;;;-0.48;53.79;99682.00;4989602;28;45840;-73
2022/12/15 11:37:42;;;;;;;;;63.25;50.25;;;;;1.97;53.44;100059.59;5017172;28;45301;-72
2022/12/15 11:40:23;;;;;;;;;68.75;54.50;;;;;2.07;53.67;100055.41;5015708;28;45467;-75
2022/12/15 11:42:51;;;;;;;;;65.00;51.25;;;;;2.96;53.11;100183.78;5003044;28;45815;-71
2022/12/15 11:45:33;;;;;;;;;64.75;52.75;;;;;2.90;52.47;100186.88;5015674;28;46104;-71
2022/12/15 11:48:02;;;;;;;;;67.25;54.75;;;;;2.27;53.53;100103.00;5015969;28;45522;-72
2022/12/15 11:50:40;;;;;;;;;69.50;54.25;;;;;2.76;53.96;100181.75;5019149;28;45413;-72
2022/12/15 11:53:20;;;;;;;;;68.25;54.75;;;;;2.84;54.34;100178.59;5020459;28;45627;-72
2022/12/15 11:56:10;;;;;;;;;69.50;57.00;;;;;2.16;54.11;100039.97;5021348;28;45230;-70
2022/12/15 11:58:45;;;;;;;;;65.75;52.75;;;;;2.80;53.73;100128.06;5019466;28;45423;-76
2022/12/15 12:01:19;;;;;;;;;70.00;55.00;;;;;3.08;53.10;100150.56;5020817;28;45322;-73
2022/12/15 12:04:23;;;;;;;;;64.50;51.25;;;;;3.05;52.61;100153.44;5018831;28;46261;-71
2022/12/15 12:07:30;;;;;;;;;65.25;49.75;;;;;2.96;52.85;100143.56;5018331;28;45660;-72
2022/12/15 12:10:15;;;;;;;;;58.00;47.25;;;;;3.00;52.96;100139.78;4980679;28;45536;-71
2022/12/15 12:13:15;;;;;;;;;52.00;41.75;;;;;3.10;52.50;100155.72;5015693;28;45768;-72
2022/12/15 12:15:52;;;;;;;;;62.75;49.75;;;;;3.04;51.75;100147.34;5001038;28;45815;-71
2022/12/15 12:18:28;;;;;;;;;67.25;51.75;;;;;2.92;51.72;100118.50;5002881;28;45435;-70
2022/12/15 12:21:05;;;;;;;;;65.00;50.50;;;;;2.58;51.39;100084.16;4982740;28;45517;-71
2022/12/15 12:23:42;;;;;;;;;62.00;48.50;;;;;2.92;52.08;100135.09;4982652;28;45482;-70
2022/12/15 12:26:26;;;;;;;;;70.75;50.75;;;;;2.97;51.91;100137.38;5001397;28;45871;-72
2022/12/15 12:29:19;;;;;;;;;55.25;44.75;;;;;2.55;51.17;100050.25;4999218;28;45540;-70
2022/12/15 12:32:28;;;;;;;;;60.75;49.25;;;;;2.37;51.13;100006.97;4998393;28;45490;-72
2022/12/15 12:35:05;;;;;;;;;39.00;33.00;;;;;3.17;51.54;100131.50;4976942;28;45613;-73
2022/12/15 12:37:51;;;;;;;;;60.75;48.75;;;;;3.22;50.99;100118.91;4999818;28;45273;-72
2022/12/15 12:40:34;;;;;;;;;58.75;45.00;;;;;3.20;50.41;100112.91;4999470;28;45443;-69
2022/12/15 12:43:03;;;;;;;;;54.50;43.50;;;;;3.08;50.50;100102.47;5000237;28;45253;-70
2022/12/15 12:45:53;;;;;;;;;56.00;46.75;;;;;3.06;49.97;100097.34;4999009;28;45509;-71
2022/12/15 12:48:40;;;;;;;;;64.75;49.75;;;;;3.20;50.55;100109.44;4999103;28;46906;-73
2022/12/15 12:51:32;;;;;;;;;63.00;48.25;;;;;3.22;50.19;100110.19;4998277;28;45559;-72
2022/12/15 12:53:58;;;;;;;;;57.25;46.50;;;;;2.29;50.58;99949.84;4981318;28;45347;-72
2022/12/15 12:56:34;;;;;;;;;64.00;48.00;;;;;2.91;50.81;100056.44;5000073;28;45159;-72
2022/12/15 12:59:06;;;;;;;;;64.25;48.50;;;;;3.31;51.04;100105.06;4998352;28;46659;-70
2022/12/15 13:01:33;;;;;;;;;54.00;44.50;;;;;2.73;50.63;100006.94;5000805;28;45444;-72
2022/12/15 13:04:38;;;;;;;;;67.50;50.00;;;;;3.18;51.18;100106.09;5000148;28;45218;-71
2022/12/15 13:07:24;;;;;;;;;62.50;51.75;;;;;3.04;50.70;100059.84;5013947;28;45456;-70
2022/12/15 13:10:08;;;;;;;;;60.25;49.50;;;;;3.14;50.92;100076.59;5022592;28;45262;-72
2022/12/15 13:12:54;;;;;;;;;59.25;48.00;;;;;3.25;51.20;100092.41;5018202;28;45408;-71
2022/12/15 13:15:38;;;;;;;;;61.25;47.75;;;;;3.26;51.55;100094.06;5001643;28;45421;-70
2022/12/15 13:18:14;;;;;;;;;61.25;49.50;;;;;3.03;52.24;100048.50;5017673;28;45564;-73
2022/12/15 13:20:41;;;;;;;;;64.00;50.50;;;;;3.20;51.52;100077.91;5018977;28;45329;-71
2022/12/15 13:23:22;;;;;;;;;63.75;52.00;;;;;2.98;51.86;100047.97;5019402;28;45287;-72
2022/12/15 13:25:56;;;;;;;;;57.25;48.00;;;;;3.30;52.57;100102.56;5000976;28;45616;-69
2022/12/15 13:28:33;;;;;;;;;57.25;49.00;;;;;3.23;51.98;100104.81;5005009;28;45548;-71
2022/12/15 13:31:13;;;;;;;;;61.50;46.25;;;;;3.24;52.78;100103.88;5004351;28;45486;-71
2022/12/15 13:33:48;;;;;;;;;63.75;50.75;;;;;3.05;52.18;100096.50;5001984;28;45531;-71
2022/12/15 13:36:38;;;;;;;;;65.75;52.00;;;;;3.08;53.02;100100.69;5001079;28;45492;-72
2022/12/15 13:39:15;;;;;;;;;29.50;24.25;;;;;3.23;52.80;100096.94;5016108;28;45519;-70
2022/12/15 13:41:42;;;;;;;;;52.00;43.75;;;;;3.20;53.04;100089.25;5014962;28;47437;-70
2022/12/15 13:44:25;;;;;;;;;61.50;50.00;;;;;3.35;53.07;100092.53;5011040;28;45552;-70
2022/12/15 13:46:53;;;;;;;;;64.75;51.00;;;;;3.33;52.75;100076.06;5003071;28;45645;-70
2022/12/15 13:49:30;;;;;;;;;54.75;44.25;;;;;3.27;52.61;100071.28;5004445;28;45476;-73
2022/12/15 13:52:23;;;;;;;;;60.75;48.00;;;;;3.17;52.57;100057.97;4982852;28;47191;-69
2022/12/15 13:54:54;;;;;;;;;59.25;46.50;;;;;2.80;51.94;100011.72;5007958;28;45658;-72
2022/12/15 13:57:22;;;;;;;;;56.00;42.50;;;;;3.21;51.96;100064.69;5000242;28;45494;-73